Philadelphia, Pennsylvania
Traffic Map
Current Weather Conditions
Philadelphia, Pennsylvania
Broken Clouds
Broken Clouds
78°
Feels Like: 80°
Wind Chill: 78° Ceiling: 24000
Heat Index: 80° Visibility: 10mi
Dew Point: 66° Wind: 6mph
Humidity: 66% Direction: 230° (SW)
Pressure: 29.98in Gusts: 0mph
Raw Report DataKPHL 301754Z 23005KT 10SM SCT015 SCT100 BKN240 26/19 A2998 RMK AO2 SLP152 T02560189 10256 20217 56009
Traffic Incident Summary
Active as of:
Severity:
Category:
InformationThere was an issue retrieving the traffic information for this location. Please try a different location or try again shortly.
Advertisements
Track Severe Weather on mobile